Flight Track Log - Related Links

Times and Time Zones

All times are in EDT time to prevent confusion due to time zone crossing. See the AAL832 flight status page for this flight to view local times or setup timezone preferences in your user account.

Time Position Orientation Groundspeed Altitude Reporting Facility
EDT Latitude Longitude Course Direction KTS MPH feet Rate Location/Type
Sat 12:58:31 PM 33.9439 -118.4672 46° Northeast 197 227 1,500  Level Los Angeles Center
Sat 12:59:33 PM 33.9369 -118.5372 263° West 212 244 2,700 1,279 Climbing Los Angeles Center
Sat 01:00:00 PM 34.1214 -118.0905 59° Northeast  Level FlightAware Approximate
Sat 01:00:47 PM 33.9244 -118.6244 260° West 262 302 4,400  Level Los Angeles Center
Sat 01:01:00 PM 34.1840 -117.9653 59° Northeast  Level FlightAware Approximate
Sat 01:02:00 PM 34.2467 -117.8400 59° Northeast  Level FlightAware Approximate
Sat 01:02:01 PM 33.8400 -118.6469 192° South 278 320 7,100  Level Los Angeles Center
Sat 01:03:00 PM 34.3240 -117.7283 46° Northeast  Level FlightAware Approximate
Sat 01:03:04 PM 33.8472 -118.5403 85° East 301 346 9,700  Level Los Angeles Center
Sat 01:04:06 PM 33.9103 -118.4625 46° Northeast 328 377 11,200 1,597 Climbing Los Angeles Center
Sat 01:05:08 PM 33.9764 -118.3603 52° Northeast 362 417 13,000 1,790 Climbing Los Angeles Center
Sat 01:06:10 PM 34.0367 -118.2506 56° Northeast 386 444 14,900 2,032 Climbing Los Angeles Center
Sat 01:07:12 PM 34.1008 -118.1383 55° Northeast 402 463 17,200 2,226 Climbing Los Angeles Center
Sat 01:08:14 PM 34.1631 -118.0281 56° Northeast 400 460 19,500 1,839 Climbing Los Angeles Center
Sat 01:09:16 PM 34.2275 -117.9122 56° Northeast 411 473 21,000 1,440 Climbing Los Angeles Center
Sat 01:10:19 PM 34.2942 -117.7942 56° Northeast 423 487 22,500 1,584 Climbing Los Angeles Center
Sat 01:11:21 PM 34.3783 -117.6458 55° Northeast 444 511 24,300 1,500 Climbing Los Angeles Center
Sat 01:12:23 PM 34.4486 -117.5472 49° Northeast 452 520 25,600 1,403 Climbing Los Angeles Center
Sat 01:13:25 PM 34.5475 -117.4069 49° Northeast 459 528 27,200 1,306 Climbing Los Angeles Center
Sat 01:14:27 PM 34.6308 -117.2886 49° Northeast 465 535 28,300 1,065 Climbing Los Angeles Center
Sat 01:15:29 PM 34.7156 -117.1675 50° Northeast 473 544 29,400 1,210 Climbing Los Angeles Center
Sat 01:16:31 PM 34.7994 -117.0450 50° Northeast 476 548 30,800 1,210 Climbing Los Angeles Center
Sat 01:17:33 PM 34.8839 -116.9236 50° Northeast 473 544 31,900 968 Climbing Los Angeles Center
Sat 01:18:35 PM 34.9867 -116.7767 49° Northeast 478 550 32,800 968 Climbing Los Angeles Center
Sat 01:19:37 PM 35.0733 -116.6497 50° Northeast 485 558 33,900 1,065 Climbing Los Angeles Center
Sat 01:20:39 PM 35.1575 -116.5267 50° Northeast 479 551 35,000 485 Climbing Los Angeles Center
Sat 01:21:53 PM 35.2422 -116.4036 50° Northeast 475 547 35,000  Level Los Angeles Center
Sat 01:23:08 PM 35.3442 -116.2531 50° Northeast 480 552 35,000  Level Los Angeles Center
Sat 01:24:11 PM 35.4614 -116.0772 51° Northeast 479 551 35,000  Level Los Angeles Center
Sat 01:25:13 PM 35.5489 -115.9522 49° Northeast 482 555 35,000  Level Los Angeles Center
Sat 01:26:15 PM 35.6453 -115.8108 50° Northeast 483 556 35,000  Level Los Angeles Center
Sat 01:27:17 PM 35.7297 -115.6856 50° Northeast 478 550 35,000  Level Los Angeles Center
Sat 01:28:19 PM 35.8133 -115.5594 51° Northeast 477 549 35,000  Level Los Angeles Center
Sat 01:29:21 PM 35.8983 -115.4319 51° Northeast 481 554 35,000  Level Los Angeles Center
Sat 01:30:35 PM 35.9983 -115.2811 51° Northeast 478 550 35,000  Level Los Angeles Center
Sat 01:31:38 PM 36.0942 -115.1281 52° Northeast 474 545 35,000  Level Los Angeles Center
Sat 01:32:40 PM 36.1600 -114.9853 60° Northeast 478 550 35,000  Level Los Angeles Center
Sat 01:33:42 PM 36.2286 -114.8417 59° Northeast 485 558 35,000  Level Los Angeles Center
Sat 01:34:44 PM 36.2956 -114.6978 60° Northeast 485 558 35,000  Level Los Angeles Center
Sat 01:35:46 PM 36.3617 -114.5544 60° Northeast 481 554 35,000  Level Los Angeles Center
Sat 01:36:48 PM 36.4275 -114.4111 60° Northeast 479 551 35,000  Level Los Angeles Center
Sat 01:37:53 PM 36.5072 -114.2392 60° Northeast 479 551 35,000  Level Los Angeles Center
Sat 01:38:52 PM 36.5706 -114.0992 61° Northeast 473 544 35,000  Level Los Angeles Center
Sat 01:39:54 PM 36.6367 -113.9553 60° Northeast 478 550 35,000  Level Los Angeles Center
Sat 01:40:56 PM 36.7014 -113.8117 61° Northeast 477 549 35,000  Level Los Angeles Center
Sat 01:41:59 PM 36.7661 -113.6689 60° Northeast 475 547 35,000  Level Los Angeles Center
Sat 01:43:00 PM 36.8181 -113.5536 61° Northeast 476 548 35,000  Level Los Angeles Center
Sat 01:44:04 PM 36.9081 -113.3506 61° Northeast 478 550 35,000  Level Los Angeles Center
Sat 01:45:17 PM 36.9733 -113.2044 61° Northeast 481 554 35,000  Level Los Angeles Center
Sat 01:46:19 PM 37.0500 -113.0300 61° Northeast 480 552 35,000  Level Los Angeles Center
Sat 01:47:21 PM 37.1136 -112.8867 61° Northeast 474 545 35,000  Level Los Angeles Center
Sat 01:48:23 PM 37.1892 -112.7153 61° Northeast 473 544 35,000  Level Los Angeles Center
Sat 01:49:25 PM 37.2511 -112.5728 61° Northeast 471 542 35,000  Level Los Angeles Center
Sat 01:50:27 PM 37.3136 -112.4300 61° Northeast 472 543 35,000  Level Los Angeles Center
Sat 01:51:30 PM 37.3764 -112.2878 61° Northeast 471 542 35,000  Level Los Angeles Center
Sat 01:52:32 PM 37.4389 -112.1442 61° Northeast 471 542 35,000  Level Los Angeles Center
Sat 01:53:47 PM 37.5169 -111.9400 64° Northeast 467 537 35,000  Level Salt Lake Center
Sat 01:54:49 PM 37.5558 -111.7847 72° East 468 539 35,000  Level Salt Lake Center
Sat 01:55:51 PM 37.5958 -111.6289 72° East 467 537 35,000  Level Salt Lake Center
Sat 01:56:53 PM 37.6353 -111.4747 72° East 465 535 35,000  Level Salt Lake Center
Sat 01:57:55 PM 37.6761 -111.3189 72° East 468 539 35,000  Level Salt Lake Center
Sat 01:58:57 PM 37.7219 -111.1311 73° East 468 539 35,000  Level Salt Lake Center
Sat 02:00:08 PM 37.7686 -110.9458 72° East 464 534 35,000  Level Denver Center
Sat 02:01:11 PM 37.8067 -110.7903 73° East 465 535 35,000  Level Denver Center
Sat 02:02:13 PM 37.8453 -110.6344 73° East 465 535 35,000  Level Denver Center
Sat 02:03:15 PM 37.8867 -110.4678 72° East 463 533 35,000  Level Denver Center
Sat 02:04:17 PM 37.9233 -110.3167 73° East 467 537 35,000  Level Denver Center
Sat 02:05:19 PM 37.9656 -110.1436 73° East 464 534 35,000  Level Denver Center
Sat 02:06:21 PM 38.0017 -109.9933 73° East 464 534 35,000  Level Denver Center
Sat 02:07:23 PM 38.0417 -109.8392 72° East 465 535 35,000  Level Denver Center
Sat 02:08:25 PM 38.0869 -109.6658 72° East 464 534 35,000  Level Denver Center
Sat 02:09:27 PM 38.1242 -109.5158 72° East 466 536 35,000  Level Denver Center
Sat 02:10:29 PM 38.1689 -109.3406 72° East 467 537 35,000  Level Denver Center
Sat 02:11:31 PM 38.2067 -109.1906 72° East 468 539 35,000  Level Denver Center
Sat 02:12:33 PM 38.2508 -109.0167 72° East 465 535 35,000  Level Denver Center
Sat 02:13:35 PM 38.2872 -108.8639 73° East 468 539 35,000  Level Denver Center
Sat 02:14:38 PM 38.3311 -108.6914 72° East 462 532 35,000  Level Denver Center
Sat 02:15:40 PM 38.3681 -108.5425 72° East 462 532 35,000 581 Level Denver Center
Sat 02:16:42 PM 38.4100 -108.3694 73° East 460 529 36,200 871 Climbing Denver Center
Sat 02:17:44 PM 38.4461 -108.2217 73° East 458 527 36,800 387 Climbing Denver Center
Sat 02:18:46 PM 38.4881 -108.0464 73° East 463 533 37,000 97 Climbing Denver Center
Sat 02:19:48 PM 38.5242 -107.8964 73° East 463 533 37,000  Level Denver Center
Sat 02:20:50 PM 38.5658 -107.7197 73° East 466 536 37,000  Level Denver Center
Sat 02:21:52 PM 38.6008 -107.5686 73° East 464 534 37,000  Level Denver Center
Sat 02:22:54 PM 38.6428 -107.3911 73° East 467 537 37,000  Level Denver Center
Sat 02:23:56 PM 38.6775 -107.2392 74° East 466 536 37,000  Level Denver Center
Sat 02:24:58 PM 38.7125 -107.0867 74° East 467 537 37,000  Level Denver Center
Sat 02:26:00 PM 38.7542 -106.9022 74° East 462 532 37,000  Level Denver Center
Sat 02:27:02 PM 38.7906 -106.7436 74° East 464 534 37,000  Level Denver Center
Sat 02:28:04 PM 38.8319 -106.5872 71° East 465 535 37,000  Level Denver Center
Sat 02:29:07 PM 38.8739 -106.4308 71° East 466 536 37,000  Level Denver Center
Sat 02:30:09 PM 38.9211 -106.2564 71° East 470 541 37,000  Level Denver Center
Sat 02:31:11 PM 38.9619 -106.1039 71° East 462 532 37,000  Level Denver Center
Sat 02:32:13 PM 39.0033 -105.9483 71° East 462 532 37,000  Level Denver Center
Sat 02:33:15 PM 39.0525 -105.7617 71° East 462 532 37,000  Level Denver Center
Sat 02:34:17 PM 39.0931 -105.6058 71° East 462 532 37,000  Level Denver Center
Sat 02:35:19 PM 39.1336 -105.4478 72° East 464 534 37,000  Level Denver Center
Sat 02:36:21 PM 39.1772 -105.2911 70° East 468 539 37,000  Level Denver Center
Sat 02:37:23 PM 39.2172 -105.1319 72° East 471 542 37,000  Level Denver Center
Sat 02:38:25 PM 39.2569 -104.9731 72° East 470 541 37,000  Level Denver Center
Sat 02:39:27 PM 39.3044 -104.7833 72° East 467 537 37,000  Level Denver Center
Sat 02:40:29 PM 39.3442 -104.6244 72° East 472 543 37,000  Level Denver Center
Sat 02:41:31 PM 39.3842 -104.4661 72° East 472 543 37,000  Level Denver Center
Sat 02:42:33 PM 39.4231 -104.3069 72° East 472 543 37,000  Level Denver Center
Sat 02:43:35 PM 39.4706 -104.1144 72° East 474 545 37,000  Level Denver Center
Sat 02:44:38 PM 39.5069 -103.9522 74° East 473 544 37,000  Level Denver Center
Sat 02:45:40 PM 39.5292 -103.7842 80° East 479 551 37,000  Level Denver Center
Sat 02:46:42 PM 39.5536 -103.6192 79° East 466 536 37,000  Level Denver Center
Sat 02:47:44 PM 39.5764 -103.4522 80° East 472 543 37,000  Level Denver Center
Sat 02:48:46 PM 39.6006 -103.2850 79° East 474 545 37,000  Level Denver Center
Sat 02:49:48 PM 39.6281 -103.0864 80° East 470 541 37,000  Level Denver Center
Sat 02:50:50 PM 39.6489 -102.9214 81° East 464 534 37,000  Level Denver Center
Sat 02:51:52 PM 39.6708 -102.7589 80° East 459 528 37,000  Level Denver Center
Sat 02:52:54 PM 39.6922 -102.5944 80° East 459 528 37,000  Level Denver Center
Sat 02:53:56 PM 39.7158 -102.4142 80° East 454 522 37,000  Level Denver Center
Sat 02:54:58 PM 39.7347 -102.2592 81° East 454 522 37,000  Level Denver Center
Sat 02:55:59 PM 39.7581 -102.0772 80° East 457 526 37,000  Level Denver Center
Sat 02:57:01 PM 39.7772 -101.9219 81° East 456 525 37,000  Level Denver Center
Sat 02:58:04 PM 39.7981 -101.7367 82° East 463 533 37,000  Level Denver Center
Sat 02:59:05 PM 39.8083 -101.5756 85° East 467 537 37,000  Level Denver Center
Sat 03:00:07 PM 39.8219 -101.3872 85° East 470 541 37,000  Level Denver Center
Sat 03:01:22 PM 39.8367 -101.1981 84° East 472 543 37,000  Level Denver Center
Sat 03:02:24 PM 39.8492 -101.0097 85° East 471 542 37,000  Level Denver Center
Sat 03:03:26 PM 39.8611 -100.8494 84° East 467 537 37,000  Level Denver Center
Sat 03:04:28 PM 39.8736 -100.6603 85° East 471 542 37,000  Level Denver Center
Sat 03:05:30 PM 39.8850 -100.5008 85° East 468 539 37,000  Level Denver Center
Sat 03:06:32 PM 39.8967 -100.3131 85° East 468 539 37,000  Level Denver Center
Sat 03:07:34 PM 39.9064 -100.1594 85° East 465 535 37,000  Level Denver Center
Sat 03:08:36 PM 39.9169 -99.9917 85° East 466 536 37,000  Level Denver Center
Sat 03:09:38 PM 39.9297 -99.7906 85° East 465 535 37,000  Level Denver Center
Sat 03:10:40 PM 39.9394 -99.6206 86° East 469 540 37,000  Level Denver Center
Sat 03:11:41 PM 39.9486 -99.4503 86° East 471 542 37,000  Level Denver Center
Sat 03:12:43 PM 39.9578 -99.2797 86° East 472 543 37,000  Level Denver Center
Sat 03:13:45 PM 39.9678 -99.1078 86° East 476 548 37,000  Level Denver Center
Sat 03:14:47 PM 39.9764 -98.9358 86° East 478 550 37,000  Level Denver Center
Sat 03:15:45 PM 39.9856 -98.7644 86° East 480 552 37,000  Level Minneapolis Center
Sat 03:16:47 PM 39.9939 -98.5911 86° East 481 554 37,000  Level Minneapolis Center
Sat 03:17:49 PM 40.0047 -98.3789 86° East 488 562 37,000  Level Minneapolis Center
Sat 03:18:51 PM 40.0125 -98.2039 87° East 488 562 37,000  Level Minneapolis Center
Sat 03:19:52 PM 40.0200 -98.0297 87° East 486 559 37,000  Level Minneapolis Center
Sat 03:20:54 PM 40.0272 -97.8561 87° East 484 557 37,000  Level Minneapolis Center
Sat 03:21:56 PM 40.0347 -97.6822 87° East 483 556 37,000  Level Minneapolis Center
Sat 03:22:58 PM 40.0417 -97.5097 87° East 481 554 37,000  Level Minneapolis Center
Sat 03:23:59 PM 40.0492 -97.3356 87° East 481 554 37,000  Level Minneapolis Center
Sat 03:25:01 PM 40.0569 -97.1292 87° East 481 554 37,000  Level Minneapolis Center
Sat 03:26:03 PM 40.0633 -96.9519 87° East 482 555 37,000  Level Minneapolis Center
Sat 03:27:05 PM 40.0689 -96.7764 88° East 487 560 37,000  Level Minneapolis Center
Sat 03:28:07 PM 40.0750 -96.6006 87° East 488 562 37,000  Level Minneapolis Center
Sat 03:29:08 PM 40.0803 -96.4247 88° East 487 560 37,000  Level Minneapolis Center
Sat 03:30:10 PM 40.0864 -96.2500 87° East 485 558 37,000  Level Minneapolis Center
Sat 03:31:17 PM 40.0922 -96.0261 88° East 487 560 37,000  Level Kansas City Center
Sat 03:32:18 PM 40.0961 -95.8572 88° East 485 558 37,000  Level Kansas City Center
Sat 03:33:20 PM 40.1008 -95.6875 88° East 486 559 37,000  Level Kansas City Center
Sat 03:34:22 PM 40.1058 -95.4883 88° East 488 562 37,000  Level Kansas City Center
Sat 03:35:24 PM 40.1089 -95.3194 89° East 485 558 37,000  Level Kansas City Center
Sat 03:36:25 PM 40.1128 -95.1214 88° East 487 560 37,000  Level Kansas City Center
Sat 03:37:27 PM 40.1169 -94.9494 88° East 492 566 37,000  Level Kansas City Center
Sat 03:38:29 PM 40.1189 -94.7794 89° East 488 562 37,000  Level Kansas City Center
Sat 03:39:30 PM 40.1228 -94.5806 88° East 489 563 37,000  Level Kansas City Center
Sat 03:40:32 PM 40.1247 -94.4117 89° East 486 559 37,000  Level Kansas City Center
Sat 03:41:34 PM 40.1278 -94.2133 89° East 487 560 37,000  Level Kansas City Center
Sat 03:42:35 PM 40.1278 -94.0439 90° East 488 562 37,000  Level Kansas City Center
Sat 03:43:37 PM 40.1508 -93.8794 80° East 472 543 37,000  Level Kansas City Center
Sat 03:44:39 PM 40.1803 -93.7169 77° East 465 535 37,000  Level Kansas City Center
Sat 03:45:40 PM 40.2069 -93.5539 78° East 463 533 37,000  Level Kansas City Center
Sat 03:46:42 PM 40.2403 -93.3597 77° East 460 529 37,000  Level Kansas City Center
Sat 03:47:43 PM 40.2692 -93.1969 77° East 463 533 37,000  Level Kansas City Center
Sat 03:48:45 PM 40.2986 -93.0197 78° East 462 532 37,000  Level Kansas City Center
Sat 03:49:47 PM 40.3256 -92.8622 77° East 462 532 37,000  Level Kansas City Center
Sat 03:50:48 PM 40.3531 -92.7050 77° East 464 534 37,000  Level Kansas City Center
Sat 03:51:50 PM 40.3769 -92.5325 80° East 470 541 37,000  Level Kansas City Center
Sat 03:52:45 PM 40.4067 -92.3581 77° East 470 541 37,000  Level Chicago Center
Sat 03:53:47 PM 40.4322 -92.1925 78° East 467 537 37,000  Level Chicago Center
Sat 03:54:55 PM 40.4628 -91.9939 79° East 466 536 37,000  Level Kansas City Center
Sat 03:55:50 PM 40.4847 -91.8622 78° East 465 535 37,000 -256 Level Chicago Center
Sat 03:56:52 PM 40.5075 -91.6978 80° East 462 532 36,500 -1,122 Descending Chicago Center
Sat 03:57:53 PM 40.5372 -91.5050 78° East 454 522 34,700 -1,707 Descending Chicago Center
Sat 03:58:55 PM 40.5686 -91.3564 74° East 433 498 33,000 -823 Descending Chicago Center
Sat 03:59:57 PM 40.6189 -91.2147 65° Northeast 429 494 33,000  Level Chicago Center
Sat 04:00:59 PM 40.6692 -91.0692 65° Northeast 434 499 33,000  Level Chicago Center
Sat 04:02:00 PM 40.7178 -90.9219 66° East 437 503 33,000 -488 Level Chicago Center
Sat 04:03:02 PM 40.7686 -90.7736 66° East 444 511 32,000 -1,210 Descending Chicago Center
Sat 04:04:04 PM 40.8194 -90.6247 66° East 443 510 30,500 -1,317 Descending Chicago Center
Sat 04:05:05 PM 40.8706 -90.4728 66° East 451 519 29,300 -976 Descending Chicago Center
Sat 04:06:07 PM 40.9200 -90.3217 67° East 447 514 28,500 -871 Descending Chicago Center
Sat 04:07:09 PM 40.9764 -90.1525 66° East 437 503 27,500 -1,073 Descending Chicago Center
Sat 04:08:10 PM 41.0267 -89.9989 67° East 428 493 26,300 -1,171 Descending Chicago Center
Sat 04:09:12 PM 41.0733 -89.8567 66° East 419 482 25,100 -1,122 Descending Chicago Center
Sat 04:10:13 PM 41.1192 -89.7164 67° East 413 475 24,000 -683 Descending Chicago Center
Sat 04:11:15 PM 41.1644 -89.5772 67° East 411 473 23,700 -1,113 Descending Chicago Center
Sat 04:12:17 PM 41.2186 -89.4439 62° Northeast 408 470 21,700 -1,951 Descending Chicago Center
Sat 04:13:18 PM 41.2717 -89.3136 62° Northeast 401 461 19,700 -2,098 Descending Chicago Center
Sat 04:14:20 PM 41.3244 -89.1794 62° Northeast 390 449 17,400 -1,935 Descending Chicago Center
Sat 04:15:22 PM 41.3733 -89.0578 62° Northeast 377 434 15,700 -1,707 Descending Chicago Center
Sat 04:16:23 PM 41.4200 -88.9408 62° Northeast 363 418 13,900 -1,756 Descending Chicago Center
Sat 04:17:25 PM 41.4642 -88.8269 63° Northeast 351 404 12,100 -1,403 Descending Chicago Center
Sat 04:18:27 PM 41.5133 -88.6939 64° Northeast 336 387 11,000 -537 Descending Chicago Center
Sat 04:19:28 PM 41.5258 -88.5867 81° East 297 342 11,000 -293 Level Chicago Center
Sat 04:20:30 PM 41.5453 -88.4858 76° East 292 336 10,400 -968 Descending Chicago Center
Sat 04:21:32 PM 41.5972 -88.4078 48° Northeast 285 328 9,000 -1,171 Descending Chicago Center
Sat 04:22:33 PM 41.6467 -88.3325 49° Northeast 272 313 8,000 -976 Descending Chicago Center
Sat 04:23:35 PM 41.6936 -88.2589 49° Northeast 262 302 7,000 -581 Descending Chicago Center
Sat 04:24:37 PM 41.7375 -88.1883 50° Northeast 248 285 6,800 -878 Descending Chicago Center
Sat 04:25:38 PM 41.7853 -88.1139 49° Northeast 224 258 5,200 -1,366 Descending Chicago Center
Sat 04:26:40 PM 41.8250 -88.0536 49° Northeast 219 252 4,000 -1,161 Descending Chicago Center

Login

Don't have an account? Register now (free) for customized features, flight alerts, and more!